sensor_id;sensor_type;location;lat;lon;timestamp;temperature;humidity
15997;DHT22;8103;51.340;12.326;2022-12-07T00:01:43;3.20;99.90
15997;DHT22;8103;51.340;12.326;2022-12-07T00:04:12;3.20;99.90
15997;DHT22;8103;51.340;12.326;2022-12-07T00:06:51;3.10;99.90
15997;DHT22;8103;51.340;12.326;2022-12-07T00:09:18;3.10;99.90
15997;DHT22;8103;51.340;12.326;2022-12-07T00:11:49;3.10;99.90
15997;DHT22;8103;51.340;12.326;2022-12-07T00:14:16;3.10;99.90
15997;DHT22;8103;51.340;12.326;2022-12-07T00:16:44;3.10;99.90
15997;DHT22;8103;51.340;12.326;2022-12-07T00:19:12;3.10;99.90
15997;DHT22;8103;51.340;12.326;2022-12-07T00:21:40;3.00;99.90
15997;DHT22;8103;51.340;12.326;2022-12-07T00:24:07;3.00;99.90
15997;DHT22;8103;51.340;12.326;2022-12-07T00:26:39;2.90;99.90
15997;DHT22;8103;51.340;12.326;2022-12-07T00:29:15;2.90;99.90
15997;DHT22;8103;51.340;12.326;2022-12-07T00:31:43;2.90;99.90
15997;DHT22;8103;51.340;12.326;2022-12-07T00:34:17;2.90;99.90
15997;DHT22;8103;51.340;12.326;2022-12-07T00:36:44;2.80;99.90
15997;DHT22;8103;51.340;12.326;2022-12-07T00:39:11;2.70;99.90
15997;DHT22;8103;51.340;12.326;2022-12-07T00:41:38;2.60;99.90
15997;DHT22;8103;51.340;12.326;2022-12-07T00:44:05;2.60;99.90
15997;DHT22;8103;51.340;12.326;2022-12-07T00:46:33;2.50;99.90
15997;DHT22;8103;51.340;12.326;2022-12-07T00:49:01;2.40;99.90
15997;DHT22;8103;51.340;12.326;2022-12-07T00:51:28;2.40;99.90
15997;DHT22;8103;51.340;12.326;2022-12-07T00:53:55;2.30;99.90
15997;DHT22;8103;51.340;12.326;2022-12-07T00:56:24;2.30;99.90
15997;DHT22;8103;51.340;12.326;2022-12-07T00:58:56;2.30;99.90
15997;DHT22;8103;51.340;12.326;2022-12-07T01:01:24;2.20;99.90
15997;DHT22;8103;51.340;12.326;2022-12-07T01:03:52;2.20;99.90
15997;DHT22;8103;51.340;12.326;2022-12-07T01:06:21;2.10;99.90
15997;DHT22;8103;51.340;12.326;2022-12-07T01:08:48;2.10;99.90
15997;DHT22;8103;51.340;12.326;2022-12-07T01:11:18;2.10;99.90
15997;DHT22;8103;51.340;12.326;2022-12-07T01:13:46;2.00;99.90
15997;DHT22;8103;51.340;12.326;2022-12-07T01:16:15;2.00;99.90
15997;DHT22;8103;51.340;12.326;2022-12-07T01:18:44;2.00;99.90
15997;DHT22;8103;51.340;12.326;2022-12-07T01:21:17;1.90;99.90
15997;DHT22;8103;51.340;12.326;2022-12-07T01:23:46;1.90;99.90
15997;DHT22;8103;51.340;12.326;2022-12-07T01:26:16;1.90;99.90
15997;DHT22;8103;51.340;12.326;2022-12-07T01:28:44;1.90;99.90
15997;DHT22;8103;51.340;12.326;2022-12-07T01:31:17;1.80;99.90
15997;DHT22;8103;51.340;12.326;2022-12-07T01:33:47;1.80;99.90
15997;DHT22;8103;51.340;12.326;2022-12-07T01:36:15;1.80;99.90
15997;DHT22;8103;51.340;12.326;2022-12-07T01:38:44;1.80;99.90
15997;DHT22;8103;51.340;12.326;2022-12-07T01:41:11;1.80;99.90
15997;DHT22;8103;51.340;12.326;2022-12-07T01:46:37;1.70;99.90
15997;DHT22;8103;51.340;12.326;2022-12-07T01:49:06;1.70;99.90
15997;DHT22;8103;51.340;12.326;2022-12-07T01:51:34;1.70;99.90
15997;DHT22;8103;51.340;12.326;2022-12-07T01:54:02;1.70;99.90
15997;DHT22;8103;51.340;12.326;2022-12-07T01:56:29;1.60;99.90
15997;DHT22;8103;51.340;12.326;2022-12-07T01:58:59;1.60;99.90
15997;DHT22;8103;51.340;12.326;2022-12-07T02:01:27;1.60;99.90
15997;DHT22;8103;51.340;12.326;2022-12-07T02:03:54;1.50;99.90
15997;DHT22;8103;51.340;12.326;2022-12-07T02:06:22;1.50;99.90
15997;DHT22;8103;51.340;12.326;2022-12-07T02:08:51;1.50;99.90
15997;DHT22;8103;51.340;12.326;2022-12-07T02:11:19;1.50;99.90
15997;DHT22;8103;51.340;12.326;2022-12-07T02:13:46;1.50;99.90
15997;DHT22;8103;51.340;12.326;2022-12-07T02:29:58;1.40;99.90
15997;DHT22;8103;51.340;12.326;2022-12-07T02:40:25;1.40;99.90
15997;DHT22;8103;51.340;12.326;2022-12-07T02:43:21;1.40;99.90
15997;DHT22;8103;51.340;12.326;2022-12-07T02:45:46;1.40;99.90
15997;DHT22;8103;51.340;12.326;2022-12-07T02:48:16;1.40;99.90
15997;DHT22;8103;51.340;12.326;2022-12-07T02:50:52;1.40;99.90
15997;DHT22;8103;51.340;12.326;2022-12-07T02:53:42;1.40;99.90
15997;DHT22;8103;51.340;12.326;2022-12-07T02:56:25;1.40;99.90
15997;DHT22;8103;51.340;12.326;2022-12-07T03:02:17;1.40;99.90
15997;DHT22;8103;51.340;12.326;2022-12-07T03:08:06;1.50;99.90
15997;DHT22;8103;51.340;12.326;2022-12-07T03:10:58;1.50;99.90
15997;DHT22;8103;51.340;12.326;2022-12-07T03:16:18;1.30;99.90
15997;DHT22;8103;51.340;12.326;2022-12-07T03:19:10;1.30;99.90
15997;DHT22;8103;51.340;12.326;2022-12-07T03:21:43;1.20;99.90
15997;DHT22;8103;51.340;12.326;2022-12-07T03:24:20;1.20;99.90
15997;DHT22;8103;51.340;12.326;2022-12-07T03:27:03;1.20;99.90
15997;DHT22;8103;51.340;12.326;2022-12-07T03:29:35;1.20;99.90
15997;DHT22;8103;51.340;12.326;2022-12-07T03:32:08;1.30;99.90
15997;DHT22;8103;51.340;12.326;2022-12-07T03:34:46;1.30;99.90
15997;DHT22;8103;51.340;12.326;2022-12-07T03:37:40;1.30;99.90
15997;DHT22;8103;51.340;12.326;2022-12-07T03:42:35;1.30;99.90
15997;DHT22;8103;51.340;12.326;2022-12-07T03:45:04;1.40;99.90
15997;DHT22;8103;51.340;12.326;2022-12-07T03:47:58;1.40;99.90
15997;DHT22;8103;51.340;12.326;2022-12-07T03:50:32;1.50;99.90
15997;DHT22;8103;51.340;12.326;2022-12-07T03:53:09;1.50;99.90
15997;DHT22;8103;51.340;12.326;2022-12-07T03:55:41;1.50;99.90
15997;DHT22;8103;51.340;12.326;2022-12-07T03:58:13;1.60;99.90
15997;DHT22;8103;51.340;12.326;2022-12-07T04:00:43;1.60;99.90
15997;DHT22;8103;51.340;12.326;2022-12-07T04:03:10;1.70;99.90
15997;DHT22;8103;51.340;12.326;2022-12-07T04:05:38;1.80;99.90
15997;DHT22;8103;51.340;12.326;2022-12-07T04:08:06;1.80;99.90
15997;DHT22;8103;51.340;12.326;2022-12-07T04:10:33;1.90;99.90
15997;DHT22;8103;51.340;12.326;2022-12-07T04:13:00;1.90;99.90
15997;DHT22;8103;51.340;12.326;2022-12-07T04:15:27;2.00;99.90
15997;DHT22;8103;51.340;12.326;2022-12-07T04:17:54;2.00;99.90
15997;DHT22;8103;51.340;12.326;2022-12-07T04:20:21;2.00;99.90
15997;DHT22;8103;51.340;12.326;2022-12-07T04:22:48;2.10;99.90
15997;DHT22;8103;51.340;12.326;2022-12-07T04:25:15;2.10;99.90
15997;DHT22;8103;51.340;12.326;2022-12-07T04:27:42;2.20;99.90
15997;DHT22;8103;51.340;12.326;2022-12-07T04:30:09;2.20;99.90
15997;DHT22;8103;51.340;12.326;2022-12-07T04:32:36;2.20;99.90
15997;DHT22;8103;51.340;12.326;2022-12-07T04:35:03;2.20;99.90
15997;DHT22;8103;51.340;12.326;2022-12-07T04:37:30;2.20;99.90
15997;DHT22;8103;51.340;12.326;2022-12-07T04:39:57;2.20;99.90
15997;DHT22;8103;51.340;12.326;2022-12-07T04:42:24;2.20;99.90
15997;DHT22;8103;51.340;12.326;2022-12-07T04:44:51;2.20;99.90
15997;DHT22;8103;51.340;12.326;2022-12-07T04:47:17;2.20;99.90
15997;DHT22;8103;51.340;12.326;2022-12-07T04:49:44;2.30;99.90
15997;DHT22;8103;51.340;12.326;2022-12-07T04:52:11;2.30;99.90
15997;DHT22;8103;51.340;12.326;2022-12-07T04:54:38;2.30;99.90
15997;DHT22;8103;51.340;12.326;2022-12-07T04:57:05;2.30;99.90
15997;DHT22;8103;51.340;12.326;2022-12-07T04:59:31;2.30;99.90
15997;DHT22;8103;51.340;12.326;2022-12-07T05:01:58;2.30;99.90
15997;DHT22;8103;51.340;12.326;2022-12-07T05:04:25;2.30;99.90
15997;DHT22;8103;51.340;12.326;2022-12-07T05:06:52;2.30;99.90
15997;DHT22;8103;51.340;12.326;2022-12-07T05:09:19;2.30;99.90
15997;DHT22;8103;51.340;12.326;2022-12-07T05:11:46;2.40;99.90
15997;DHT22;8103;51.340;12.326;2022-12-07T05:14:20;2.40;99.90
15997;DHT22;8103;51.340;12.326;2022-12-07T05:16:49;2.40;99.90
15997;DHT22;8103;51.340;12.326;2022-12-07T05:19:17;2.40;99.90
15997;DHT22;8103;51.340;12.326;2022-12-07T05:21:45;2.50;99.90
15997;DHT22;8103;51.340;12.326;2022-12-07T05:24:13;2.50;99.90
15997;DHT22;8103;51.340;12.326;2022-12-07T05:26:41;2.50;99.90
15997;DHT22;8103;51.340;12.326;2022-12-07T05:29:14;2.50;99.90
15997;DHT22;8103;51.340;12.326;2022-12-07T05:31:42;2.60;99.90
15997;DHT22;8103;51.340;12.326;2022-12-07T05:34:09;2.60;99.90
15997;DHT22;8103;51.340;12.326;2022-12-07T05:36:36;2.60;99.90
15997;DHT22;8103;51.340;12.326;2022-12-07T05:39:03;2.60;99.90
15997;DHT22;8103;51.340;12.326;2022-12-07T05:41:30;2.60;99.90
15997;DHT22;8103;51.340;12.326;2022-12-07T05:44:15;2.60;99.90
15997;DHT22;8103;51.340;12.326;2022-12-07T05:46:42;2.60;99.90
15997;DHT22;8103;51.340;12.326;2022-12-07T05:49:09;2.60;99.90
15997;DHT22;8103;51.340;12.326;2022-12-07T05:51:37;2.60;99.90
15997;DHT22;8103;51.340;12.326;2022-12-07T05:54:04;2.60;99.90
15997;DHT22;8103;51.340;12.326;2022-12-07T05:56:31;2.60;99.90
15997;DHT22;8103;51.340;12.326;2022-12-07T05:58:58;2.60;99.90
15997;DHT22;8103;51.340;12.326;2022-12-07T06:01:43;2.60;99.90
15997;DHT22;8103;51.340;12.326;2022-12-07T06:04:10;2.70;99.90
15997;DHT22;8103;51.340;12.326;2022-12-07T06:06:37;2.70;99.90
15997;DHT22;8103;51.340;12.326;2022-12-07T06:09:04;2.70;99.90
15997;DHT22;8103;51.340;12.326;2022-12-07T06:11:30;2.70;99.90
15997;DHT22;8103;51.340;12.326;2022-12-07T06:14:16;2.80;99.90
15997;DHT22;8103;51.340;12.326;2022-12-07T06:16:43;2.80;99.90
15997;DHT22;8103;51.340;12.326;2022-12-07T06:19:10;2.70;99.90
15997;DHT22;8103;51.340;12.326;2022-12-07T06:21:37;2.70;99.90
15997;DHT22;8103;51.340;12.326;2022-12-07T06:24:06;2.70;99.90
15997;DHT22;8103;51.340;12.326;2022-12-07T06:26:33;2.60;99.90
15997;DHT22;8103;51.340;12.326;2022-12-07T06:29:00;2.60;99.90
15997;DHT22;8103;51.340;12.326;2022-12-07T06:31:27;2.60;99.90
15997;DHT22;8103;51.340;12.326;2022-12-07T06:34:02;2.50;99.90
15997;DHT22;8103;51.340;12.326;2022-12-07T06:36:30;2.50;99.90
15997;DHT22;8103;51.340;12.326;2022-12-07T06:38:57;2.50;99.90
15997;DHT22;8103;51.340;12.326;2022-12-07T06:41:24;2.40;99.90
15997;DHT22;8103;51.340;12.326;2022-12-07T06:43:51;2.40;99.90
15997;DHT22;8103;51.340;12.326;2022-12-07T06:46:21;2.30;99.90
15997;DHT22;8103;51.340;12.326;2022-12-07T06:48:49;2.30;99.90
15997;DHT22;8103;51.340;12.326;2022-12-07T06:51:16;2.30;99.90
15997;DHT22;8103;51.340;12.326;2022-12-07T06:53:43;2.40;99.90
15997;DHT22;8103;51.340;12.326;2022-12-07T06:56:10;2.40;99.90
15997;DHT22;8103;51.340;12.326;2022-12-07T06:58:37;2.50;99.90
15997;DHT22;8103;51.340;12.326;2022-12-07T07:01:12;2.50;99.90
15997;DHT22;8103;51.340;12.326;2022-12-07T07:03:39;2.60;99.90
15997;DHT22;8103;51.340;12.326;2022-12-07T07:06:06;2.70;99.90
15997;DHT22;8103;51.340;12.326;2022-12-07T07:08:35;3.10;99.90
15997;DHT22;8103;51.340;12.326;2022-12-07T07:11:01;3.40;99.90
15997;DHT22;8103;51.340;12.326;2022-12-07T07:13:28;3.80;99.90
15997;DHT22;8103;51.340;12.326;2022-12-07T07:15:55;4.00;99.90
15997;DHT22;8103;51.340;12.326;2022-12-07T07:18:22;4.10;99.90
15997;DHT22;8103;51.340;12.326;2022-12-07T07:20:50;4.20;99.90
15997;DHT22;8103;51.340;12.326;2022-12-07T07:23:18;4.20;99.90
15997;DHT22;8103;51.340;12.326;2022-12-07T07:25:45;4.10;99.90
15997;DHT22;8103;51.340;12.326;2022-12-07T07:28:12;3.90;99.90
15997;DHT22;8103;51.340;12.326;2022-12-07T07:30:39;3.70;99.90
15997;DHT22;8103;51.340;12.326;2022-12-07T07:33:06;3.50;99.90
15997;DHT22;8103;51.340;12.326;2022-12-07T07:35:33;3.30;99.90
15997;DHT22;8103;51.340;12.326;2022-12-07T07:38:01;3.20;99.90
15997;DHT22;8103;51.340;12.326;2022-12-07T07:40:28;3.10;99.90
15997;DHT22;8103;51.340;12.326;2022-12-07T07:42:56;3.10;99.90
15997;DHT22;8103;51.340;12.326;2022-12-07T07:45:25;3.00;99.90
15997;DHT22;8103;51.340;12.326;2022-12-07T07:47:52;3.00;99.90
15997;DHT22;8103;51.340;12.326;2022-12-07T07:50:19;3.00;99.90
15997;DHT22;8103;51.340;12.326;2022-12-07T07:52:46;3.10;99.90
15997;DHT22;8103;51.340;12.326;2022-12-07T07:55:13;3.10;99.90
15997;DHT22;8103;51.340;12.326;2022-12-07T07:57:40;3.10;99.90
15997;DHT22;8103;51.340;12.326;2022-12-07T08:00:13;3.20;99.90
15997;DHT22;8103;51.340;12.326;2022-12-07T08:02:41;3.20;99.90
15997;DHT22;8103;51.340;12.326;2022-12-07T08:05:11;3.20;99.90
15997;DHT22;8103;51.340;12.326;2022-12-07T08:07:38;3.20;99.90
15997;DHT22;8103;51.340;12.326;2022-12-07T08:10:07;3.20;99.90
15997;DHT22;8103;51.340;12.326;2022-12-07T08:12:37;3.20;99.90
15997;DHT22;8103;51.340;12.326;2022-12-07T08:15:27;3.30;99.90
15997;DHT22;8103;51.340;12.326;2022-12-07T08:17:54;3.30;99.90
15997;DHT22;8103;51.340;12.326;2022-12-07T08:20:21;3.30;99.90
15997;DHT22;8103;51.340;12.326;2022-12-07T08:22:48;3.30;99.90
15997;DHT22;8103;51.340;12.326;2022-12-07T08:25:15;3.30;99.90
15997;DHT22;8103;51.340;12.326;2022-12-07T08:27:42;3.30;99.90
15997;DHT22;8103;51.340;12.326;2022-12-07T08:30:09;3.40;99.90
15997;DHT22;8103;51.340;12.326;2022-12-07T08:32:36;3.40;99.90
15997;DHT22;8103;51.340;12.326;2022-12-07T08:35:03;3.50;99.90
15997;DHT22;8103;51.340;12.326;2022-12-07T08:37:29;3.60;99.90
15997;DHT22;8103;51.340;12.326;2022-12-07T08:39:57;3.70;99.90
15997;DHT22;8103;51.340;12.326;2022-12-07T08:42:24;3.90;99.90
15997;DHT22;8103;51.340;12.326;2022-12-07T08:44:56;4.20;99.90
15997;DHT22;8103;51.340;12.326;2022-12-07T08:47:24;4.60;99.90
15997;DHT22;8103;51.340;12.326;2022-12-07T08:49:52;4.90;99.90
15997;DHT22;8103;51.340;12.326;2022-12-07T08:52:20;5.10;99.90
15997;DHT22;8103;51.340;12.326;2022-12-07T08:54:47;5.00;99.90
15997;DHT22;8103;51.340;12.326;2022-12-07T08:57:14;5.00;99.90
15997;DHT22;8103;51.340;12.326;2022-12-07T08:59:41;4.90;99.90
15997;DHT22;8103;51.340;12.326;2022-12-07T09:02:08;4.80;99.90
15997;DHT22;8103;51.340;12.326;2022-12-07T09:04:35;4.70;99.90
15997;DHT22;8103;51.340;12.326;2022-12-07T09:07:02;4.60;99.90
15997;DHT22;8103;51.340;12.326;2022-12-07T09:09:29;4.60;99.90
15997;DHT22;8103;51.340;12.326;2022-12-07T09:11:55;4.50;99.90
15997;DHT22;8103;51.340;12.326;2022-12-07T09:14:22;4.60;99.90
15997;DHT22;8103;51.340;12.326;2022-12-07T09:16:49;4.60;99.90
15997;DHT22;8103;51.340;12.326;2022-12-07T09:19:16;4.70;99.90
15997;DHT22;8103;51.340;12.326;2022-12-07T09:21:43;4.70;99.90
15997;DHT22;8103;51.340;12.326;2022-12-07T09:24:12;4.70;99.90
15997;DHT22;8103;51.340;12.326;2022-12-07T09:26:38;4.70;99.90
15997;DHT22;8103;51.340;12.326;2022-12-07T09:29:07;4.60;99.90
15997;DHT22;8103;51.340;12.326;2022-12-07T09:31:36;4.60;99.90
15997;DHT22;8103;51.340;12.326;2022-12-07T09:34:03;4.50;99.90
15997;DHT22;8103;51.340;12.326;2022-12-07T09:36:32;4.40;99.90
15997;DHT22;8103;51.340;12.326;2022-12-07T09:38:59;4.40;99.90
15997;DHT22;8103;51.340;12.326;2022-12-07T09:41:27;4.40;99.90
15997;DHT22;8103;51.340;12.326;2022-12-07T09:44:03;4.20;99.90
15997;DHT22;8103;51.340;12.326;2022-12-07T09:46:34;4.40;99.90
15997;DHT22;8103;51.340;12.326;2022-12-07T09:49:02;4.30;99.90
15997;DHT22;8103;51.340;12.326;2022-12-07T09:51:28;4.30;99.90
15997;DHT22;8103;51.340;12.326;2022-12-07T09:53:57;4.40;99.90
15997;DHT22;8103;51.340;12.326;2022-12-07T09:56:25;4.40;99.90
15997;DHT22;8103;51.340;12.326;2022-12-07T09:59:00;4.40;99.90
15997;DHT22;8103;51.340;12.326;2022-12-07T10:01:30;4.50;99.90
15997;DHT22;8103;51.340;12.326;2022-12-07T10:04:14;4.60;99.90
15997;DHT22;8103;51.340;12.326;2022-12-07T10:06:42;4.70;99.90
15997;DHT22;8103;51.340;12.326;2022-12-07T10:09:14;4.70;99.90
15997;DHT22;8103;51.340;12.326;2022-12-07T10:12:02;4.80;99.90
15997;DHT22;8103;51.340;12.326;2022-12-07T10:14:35;4.80;99.90
15997;DHT22;8103;51.340;12.326;2022-12-07T10:17:41;4.80;99.90
15997;DHT22;8103;51.340;12.326;2022-12-07T10:20:25;4.90;99.90
15997;DHT22;8103;51.340;12.326;2022-12-07T10:22:59;5.00;99.90
15997;DHT22;8103;51.340;12.326;2022-12-07T10:25:36;5.20;99.90
15997;DHT22;8103;51.340;12.326;2022-12-07T10:31:01;5.30;99.90
15997;DHT22;8103;51.340;12.326;2022-12-07T10:38:59;5.20;99.90
15997;DHT22;8103;51.340;12.326;2022-12-07T10:41:26;5.10;99.90
15997;DHT22;8103;51.340;12.326;2022-12-07T10:43:55;5.10;99.90
15997;DHT22;8103;51.340;12.326;2022-12-07T14:24:29;5.40;99.90
15997;DHT22;8103;51.340;12.326;2022-12-07T14:26:56;5.30;99.90
15997;DHT22;8103;51.340;12.326;2022-12-07T14:31:53;5.20;99.90
15997;DHT22;8103;51.340;12.326;2022-12-07T14:34:21;5.20;99.90
15997;DHT22;8103;51.340;12.326;2022-12-07T14:36:48;5.10;99.90
15997;DHT22;8103;51.340;12.326;2022-12-07T14:39:15;5.00;99.90
15997;DHT22;8103;51.340;12.326;2022-12-07T14:41:42;4.90;99.90
15997;DHT22;8103;51.340;12.326;2022-12-07T14:44:20;4.90;99.90
15997;DHT22;8103;51.340;12.326;2022-12-07T14:46:50;4.80;99.90
15997;DHT22;8103;51.340;12.326;2022-12-07T14:49:38;4.70;99.90
15997;DHT22;8103;51.340;12.326;2022-12-07T14:55:56;4.50;99.90
15997;DHT22;8103;51.340;12.326;2022-12-07T14:58:23;4.50;99.90
15997;DHT22;8103;51.340;12.326;2022-12-07T15:04:31;4.40;99.90
15997;DHT22;8103;51.340;12.326;2022-12-07T15:07:00;4.30;99.90
15997;DHT22;8103;51.340;12.326;2022-12-07T15:09:27;4.30;99.90
15997;DHT22;8103;51.340;12.326;2022-12-07T15:11:54;4.30;99.90
15997;DHT22;8103;51.340;12.326;2022-12-07T15:14:21;4.30;99.90
15997;DHT22;8103;51.340;12.326;2022-12-07T15:16:47;4.20;99.90
15997;DHT22;8103;51.340;12.326;2022-12-07T15:19:34;4.20;99.90
15997;DHT22;8103;51.340;12.326;2022-12-07T15:30:23;4.20;99.90
15997;DHT22;8103;51.340;12.326;2022-12-07T15:32:51;4.20;99.90
15997;DHT22;8103;51.340;12.326;2022-12-07T15:35:18;4.20;99.90
15997;DHT22;8103;51.340;12.326;2022-12-07T15:37:46;4.20;99.90
15997;DHT22;8103;51.340;12.326;2022-12-07T15:40:13;4.20;99.90
15997;DHT22;8103;51.340;12.326;2022-12-07T15:42:40;4.20;99.90
15997;DHT22;8103;51.340;12.326;2022-12-07T15:45:08;4.20;99.90
15997;DHT22;8103;51.340;12.326;2022-12-07T15:47:38;4.20;99.90
15997;DHT22;8103;51.340;12.326;2022-12-07T15:50:27;4.30;99.90
15997;DHT22;8103;51.340;12.326;2022-12-07T15:52:54;4.30;99.90
15997;DHT22;8103;51.340;12.326;2022-12-07T15:55:20;4.30;99.90
15997;DHT22;8103;51.340;12.326;2022-12-07T15:57:48;4.30;99.90
15997;DHT22;8103;51.340;12.326;2022-12-07T16:00:16;4.30;99.90
15997;DHT22;8103;51.340;12.326;2022-12-07T16:02:42;4.40;99.90
15997;DHT22;8103;51.340;12.326;2022-12-07T16:05:09;4.40;99.90
15997;DHT22;8103;51.340;12.326;2022-12-07T16:07:36;4.40;99.90
15997;DHT22;8103;51.340;12.326;2022-12-07T16:10:03;4.40;99.90
15997;DHT22;8103;51.340;12.326;2022-12-07T16:12:30;4.40;99.90
15997;DHT22;8103;51.340;12.326;2022-12-07T16:14:57;4.40;99.90
15997;DHT22;8103;51.340;12.326;2022-12-07T16:17:24;4.40;99.90
15997;DHT22;8103;51.340;12.326;2022-12-07T16:19:51;4.40;99.90
15997;DHT22;8103;51.340;12.326;2022-12-07T16:22:19;4.20;99.90
15997;DHT22;8103;51.340;12.326;2022-12-07T16:24:49;4.00;99.90
15997;DHT22;8103;51.340;12.326;2022-12-07T16:27:15;3.90;99.90
15997;DHT22;8103;51.340;12.326;2022-12-07T16:29:42;3.80;99.90
15997;DHT22;8103;51.340;12.326;2022-12-07T16:32:10;3.60;99.90
15997;DHT22;8103;51.340;12.326;2022-12-07T16:34:36;3.60;99.90
15997;DHT22;8103;51.340;12.326;2022-12-07T16:37:03;3.50;99.90
15997;DHT22;8103;51.340;12.326;2022-12-07T16:39:32;3.40;99.90
15997;DHT22;8103;51.340;12.326;2022-12-07T16:41:59;3.30;99.90
15997;DHT22;8103;51.340;12.326;2022-12-07T16:44:26;3.30;99.90
15997;DHT22;8103;51.340;12.326;2022-12-07T16:46:53;3.30;99.90
15997;DHT22;8103;51.340;12.326;2022-12-07T16:49:20;3.20;99.90
15997;DHT22;8103;51.340;12.326;2022-12-07T16:51:49;3.20;99.90
15997;DHT22;8103;51.340;12.326;2022-12-07T16:54:35;3.20;99.90
15997;DHT22;8103;51.340;12.326;2022-12-07T16:57:02;3.30;99.90
15997;DHT22;8103;51.340;12.326;2022-12-07T16:59:29;3.30;99.90
15997;DHT22;8103;51.340;12.326;2022-12-07T17:01:56;3.30;99.90
15997;DHT22;8103;51.340;12.326;2022-12-07T17:04:24;3.30;99.90
15997;DHT22;8103;51.340;12.326;2022-12-07T17:06:51;3.30;99.90
15997;DHT22;8103;51.340;12.326;2022-12-07T17:09:17;3.30;99.90
15997;DHT22;8103;51.340;12.326;2022-12-07T17:11:47;3.30;99.90
15997;DHT22;8103;51.340;12.326;2022-12-07T17:14:14;3.30;99.90
15997;DHT22;8103;51.340;12.326;2022-12-07T17:17:00;3.40;99.90
15997;DHT22;8103;51.340;12.326;2022-12-07T17:19:26;3.40;99.90
15997;DHT22;8103;51.340;12.326;2022-12-07T17:21:53;3.50;99.90
15997;DHT22;8103;51.340;12.326;2022-12-07T17:24:20;3.50;99.90
15997;DHT22;8103;51.340;12.326;2022-12-07T17:26:48;3.60;99.90
15997;DHT22;8103;51.340;12.326;2022-12-07T17:29:16;3.60;99.90
15997;DHT22;8103;51.340;12.326;2022-12-07T17:31:45;3.60;99.90
15997;DHT22;8103;51.340;12.326;2022-12-07T17:34:17;3.60;99.90
15997;DHT22;8103;51.340;12.326;2022-12-07T17:36:44;3.60;99.90
15997;DHT22;8103;51.340;12.326;2022-12-07T17:39:15;3.60;99.90
15997;DHT22;8103;51.340;12.326;2022-12-07T17:41:43;3.60;99.90
15997;DHT22;8103;51.340;12.326;2022-12-07T17:44:29;3.70;99.90
15997;DHT22;8103;51.340;12.326;2022-12-07T17:46:57;3.70;99.90
15997;DHT22;8103;51.340;12.326;2022-12-07T17:49:25;3.70;99.90
15997;DHT22;8103;51.340;12.326;2022-12-07T17:51:52;3.70;99.90
15997;DHT22;8103;51.340;12.326;2022-12-07T17:54:37;3.70;99.90
15997;DHT22;8103;51.340;12.326;2022-12-07T17:57:04;3.70;99.90
15997;DHT22;8103;51.340;12.326;2022-12-07T17:59:31;3.80;99.90
15997;DHT22;8103;51.340;12.326;2022-12-07T18:01:58;3.80;99.90
15997;DHT22;8103;51.340;12.326;2022-12-07T18:08:15;3.80;99.90
15997;DHT22;8103;51.340;12.326;2022-12-07T18:10:41;3.80;99.90
15997;DHT22;8103;51.340;12.326;2022-12-07T18:13:08;3.70;99.90
15997;DHT22;8103;51.340;12.326;2022-12-07T18:15:56;3.70;99.90
15997;DHT22;8103;51.340;12.326;2022-12-07T18:18:23;3.70;99.90
15997;DHT22;8103;51.340;12.326;2022-12-07T18:20:50;3.70;99.90
15997;DHT22;8103;51.340;12.326;2022-12-07T18:23:16;3.70;99.90
15997;DHT22;8103;51.340;12.326;2022-12-07T18:25:50;3.70;99.90
15997;DHT22;8103;51.340;12.326;2022-12-07T18:28:17;3.70;99.90
15997;DHT22;8103;51.340;12.326;2022-12-07T18:30:45;3.70;99.90
15997;DHT22;8103;51.340;12.326;2022-12-07T18:33:36;3.70;99.90
15997;DHT22;8103;51.340;12.326;2022-12-07T18:36:04;3.70;99.90
15997;DHT22;8103;51.340;12.326;2022-12-07T18:38:31;3.60;99.90
15997;DHT22;8103;51.340;12.326;2022-12-07T18:41:01;3.60;99.90
15997;DHT22;8103;51.340;12.326;2022-12-07T18:43:29;3.60;99.90
15997;DHT22;8103;51.340;12.326;2022-12-07T18:45:55;3.60;99.90
15997;DHT22;8103;51.340;12.326;2022-12-07T18:48:22;3.60;99.90
15997;DHT22;8103;51.340;12.326;2022-12-07T18:51:01;3.60;99.90
15997;DHT22;8103;51.340;12.326;2022-12-07T18:53:28;3.70;99.90
15997;DHT22;8103;51.340;12.326;2022-12-07T18:56:15;3.60;99.90
15997;DHT22;8103;51.340;12.326;2022-12-07T18:58:42;3.60;99.90
15997;DHT22;8103;51.340;12.326;2022-12-07T19:01:30;3.60;99.90
15997;DHT22;8103;51.340;12.326;2022-12-07T19:03:57;3.60;99.90
15997;DHT22;8103;51.340;12.326;2022-12-07T19:06:25;3.60;99.90
15997;DHT22;8103;51.340;12.326;2022-12-07T19:08:53;3.50;99.90
15997;DHT22;8103;51.340;12.326;2022-12-07T19:11:23;3.50;99.90
15997;DHT22;8103;51.340;12.326;2022-12-07T19:17:59;3.50;99.90
15997;DHT22;8103;51.340;12.326;2022-12-07T19:20:26;3.50;99.90
15997;DHT22;8103;51.340;12.326;2022-12-07T19:22:53;3.50;99.90
15997;DHT22;8103;51.340;12.326;2022-12-07T19:25:20;3.50;99.90
15997;DHT22;8103;51.340;12.326;2022-12-07T19:27:47;3.50;99.90
15997;DHT22;8103;51.340;12.326;2022-12-07T19:30:14;3.40;99.90
15997;DHT22;8103;51.340;12.326;2022-12-07T19:36:31;3.40;99.90
15997;DHT22;8103;51.340;12.326;2022-12-07T19:38:58;3.40;99.90
15997;DHT22;8103;51.340;12.326;2022-12-07T19:41:25;3.40;99.90
15997;DHT22;8103;51.340;12.326;2022-12-07T19:47:55;3.50;99.90
15997;DHT22;8103;51.340;12.326;2022-12-07T19:50:22;3.50;99.90
15997;DHT22;8103;51.340;12.326;2022-12-07T19:52:50;3.50;99.90
15997;DHT22;8103;51.340;12.326;2022-12-07T19:55:16;3.50;99.90
15997;DHT22;8103;51.340;12.326;2022-12-07T19:57:44;3.60;99.90
15997;DHT22;8103;51.340;12.326;2022-12-07T20:00:12;3.60;99.90
15997;DHT22;8103;51.340;12.326;2022-12-07T20:02:39;3.60;99.90
15997;DHT22;8103;51.340;12.326;2022-12-07T20:05:05;3.60;99.90
15997;DHT22;8103;51.340;12.326;2022-12-07T20:07:32;3.60;99.90
15997;DHT22;8103;51.340;12.326;2022-12-07T20:10:06;3.60;99.90
15997;DHT22;8103;51.340;12.326;2022-12-07T20:12:33;3.60;99.90
15997;DHT22;8103;51.340;12.326;2022-12-07T20:15:18;3.60;99.90
15997;DHT22;8103;51.340;12.326;2022-12-07T20:17:45;3.60;99.90
15997;DHT22;8103;51.340;12.326;2022-12-07T20:23:53;3.70;99.90
15997;DHT22;8103;51.340;12.326;2022-12-07T20:30:48;3.70;99.90
15997;DHT22;8103;51.340;12.326;2022-12-07T20:33:21;3.70;99.90
15997;DHT22;8103;51.340;12.326;2022-12-07T20:35:48;3.70;99.90
15997;DHT22;8103;51.340;12.326;2022-12-07T20:38:15;3.70;99.90
15997;DHT22;8103;51.340;12.326;2022-12-07T20:40:48;3.70;99.90
15997;DHT22;8103;51.340;12.326;2022-12-07T20:43:15;3.70;99.90
15997;DHT22;8103;51.340;12.326;2022-12-07T20:45:45;3.70;99.90
15997;DHT22;8103;51.340;12.326;2022-12-07T20:48:13;3.70;99.90
15997;DHT22;8103;51.340;12.326;2022-12-07T20:50:42;3.70;99.90
15997;DHT22;8103;51.340;12.326;2022-12-07T20:53:09;3.70;99.90
15997;DHT22;8103;51.340;12.326;2022-12-07T20:55:36;3.70;99.90
15997;DHT22;8103;51.340;12.326;2022-12-07T20:58:04;3.60;99.90
15997;DHT22;8103;51.340;12.326;2022-12-07T21:00:32;3.60;99.90
15997;DHT22;8103;51.340;12.326;2022-12-07T21:02:59;3.60;99.90
15997;DHT22;8103;51.340;12.326;2022-12-07T21:05:29;3.60;99.90